FHSTR LFCH-EGJA
Flight info
| Callsign | FHSTR |
|---|---|
| Flight time | N/A |
| Altitude | 500 |
| Route | DCT |
| Aircraft | PA24/L-SDFGY/L |
Departure
| Time | 2026-04-26 14:03 |
|---|---|
| Airport | Aérodrome d'Arcachon-La Teste-de-Buch (LFCH) |
Arrival
| Time | N/A |
|---|---|
| Airport | Alderney Airport (EGJA) |
| Time | Latitude | Longitude | Altitude | Speed | Heading |
|---|---|---|---|---|---|
| 2026-04-26 13:42 | 44.59710 | -1.11236 | 53 ft | 0 kts | 72° |
| 2026-04-26 13:55 | 44.59711 | -1.11233 | 53 ft | 0 kts | 71° |
| 2026-04-26 13:55 | 44.59712 | -1.11224 | 53 ft | 4 kts | 68° |
| 2026-04-26 13:55 | 44.59720 | -1.11220 | 53 ft | 0 kts | 327° |
| 2026-04-26 13:59 | 44.59729 | -1.11221 | 53 ft | 2 kts | 38° |
| 2026-04-26 14:00 | 44.59780 | -1.10832 | 52 ft | 0 kts | 65° |
| 2026-04-26 14:01 | 44.59781 | -1.10832 | 52 ft | 0 kts | 65° |
| 2026-04-26 14:01 | 44.59773 | -1.10796 | 51 ft | 9 kts | 149° |
| 2026-04-26 14:02 | 44.59726 | -1.10798 | 49 ft | 0 kts | 248° |
| 2026-04-26 14:02 | 44.59698 | -1.10908 | 49 ft | 43 kts | 253° |
| 2026-04-26 14:02 | 44.59548 | -1.11512 | 124 ft | 75 kts | 251° |
| 2026-04-26 14:02 | 44.59393 | -1.12256 | 349 ft | 82 kts | 257° |
| 2026-04-26 14:03 | 44.59242 | -1.13060 | 532 ft | 91 kts | 258° |
| 2026-04-26 14:03 | 44.59082 | -1.13996 | 569 ft | 108 kts | 259° |
| 2026-04-26 14:03 | 44.58999 | -1.15107 | 579 ft | 122 kts | 274° |
| 2026-04-26 14:03 | 44.59110 | -1.16274 | 739 ft | 119 kts | 287° |
| 2026-04-26 14:04 | 44.59344 | -1.17432 | 818 ft | 126 kts | 290° |
| 2026-04-26 14:04 | 44.59711 | -1.18618 | 767 ft | 137 kts | 297° |
| 2026-04-26 14:04 | 44.60086 | -1.19811 | 851 ft | 138 kts | 292° |
| 2026-04-26 14:04 | 44.60382 | -1.21174 | 679 ft | 152 kts | 282° |
| 2026-04-26 14:05 | 44.60125 | -1.22579 | 615 ft | 157 kts | 237° |
| 2026-04-26 14:05 | 44.59319 | -1.23581 | 605 ft | 151 kts | 213° |
| 2026-04-26 14:05 | 44.58436 | -1.24209 | 762 ft | 142 kts | 210° |
| 2026-04-26 14:05 | 44.57506 | -1.24450 | 826 ft | 134 kts | 163° |
| 2026-04-26 14:06 | 44.57092 | -1.23406 | 691 ft | 144 kts | 66° |
| 2026-04-26 14:06 | 44.57914 | -1.22728 | 546 ft | 144 kts | 16° |
| 2026-04-26 14:06 | 44.58816 | -1.22269 | 664 ft | 133 kts | 18° |
| 2026-04-26 14:06 | 44.59694 | -1.21761 | 633 ft | 137 kts | 20° |
| 2026-04-26 14:07 | 44.60573 | -1.21302 | 669 ft | 133 kts | 11° |
| 2026-04-26 14:07 | 44.61496 | -1.21046 | 666 ft | 134 kts | 8° |
| 2026-04-26 14:07 | 44.62414 | -1.20786 | 684 ft | 136 kts | 9° |
| 2026-04-26 14:07 | 44.63363 | -1.20534 | 671 ft | 139 kts | 6° |
| 2026-04-26 14:08 | 44.64327 | -1.20415 | 672 ft | 139 kts | 356° |
| 2026-04-26 14:08 | 44.65277 | -1.20473 | 666 ft | 137 kts | 355° |
| 2026-04-26 14:08 | 44.66221 | -1.20582 | 661 ft | 135 kts | 350° |
| 2026-04-26 14:08 | 44.67136 | -1.20753 | 663 ft | 134 kts | 351° |
| 2026-04-26 14:09 | 44.68055 | -1.20917 | 661 ft | 134 kts | 351° |
| 2026-04-26 14:09 | 44.68963 | -1.21080 | 661 ft | 131 kts | 351° |
| 2026-04-26 14:09 | 44.69865 | -1.21229 | 665 ft | 130 kts | 350° |
| 2026-04-26 14:09 | 44.70766 | -1.21392 | 668 ft | 130 kts | 349° |
| 2026-04-26 14:10 | 44.71668 | -1.21567 | 669 ft | 133 kts | 351° |
| 2026-04-26 14:10 | 44.72580 | -1.21713 | 670 ft | 132 kts | 350° |
| 2026-04-26 14:10 | 44.73494 | -1.21896 | 669 ft | 132 kts | 349° |
| 2026-04-26 14:10 | 44.74409 | -1.22062 | 672 ft | 133 kts | 348° |
| 2026-04-26 14:11 | 44.76263 | -1.22433 | 683 ft | 134 kts | 349° |
| 2026-04-26 14:11 | 44.77199 | -1.22636 | 685 ft | 137 kts | 350° |
| 2026-04-26 14:11 | 44.78143 | -1.22860 | 679 ft | 137 kts | 351° |
| 2026-04-26 14:12 | 44.78784 | -1.22917 | 677 ft | 141 kts | 356° |
| 2026-04-26 14:12 | 44.79763 | -1.22965 | 678 ft | 142 kts | 355° |
| 2026-04-26 14:12 | 44.81080 | -1.22884 | 677 ft | 143 kts | 0° |
| 2026-04-26 14:12 | 44.82068 | -1.22693 | 677 ft | 145 kts | 6° |
| 2026-04-26 14:13 | 44.84118 | -1.22504 | 645 ft | 151 kts | 1° |
| 2026-04-26 14:13 | 44.84814 | -1.22465 | 648 ft | 152 kts | 358° |
| 2026-04-26 14:13 | 44.85864 | -1.22388 | 669 ft | 150 kts | 3° |
| 2026-04-26 14:14 | 44.86906 | -1.22184 | 673 ft | 151 kts | 6° |
| 2026-04-26 14:14 | 44.87952 | -1.22052 | 669 ft | 150 kts | 1° |
| 2026-04-26 14:14 | 44.88994 | -1.21962 | 667 ft | 149 kts | 3° |
| 2026-04-26 14:14 | 44.90026 | -1.21808 | 668 ft | 148 kts | 3° |
| 2026-04-26 14:15 | 44.91065 | -1.21663 | 665 ft | 150 kts | 2° |
| 2026-04-26 14:15 | 44.92088 | -1.21517 | 667 ft | 149 kts | 4° |
| 2026-04-26 14:15 | 44.93114 | -1.21358 | 667 ft | 148 kts | 2° |
| 2026-04-26 14:15 | 44.94141 | -1.21213 | 668 ft | 148 kts | 4° |
| 2026-04-26 14:16 | 44.95172 | -1.21166 | 670 ft | 148 kts | 357° |
| 2026-04-26 14:16 | 44.96211 | -1.21032 | 668 ft | 151 kts | 5° |
| 2026-04-26 14:16 | 44.97248 | -1.20851 | 667 ft | 151 kts | 4° |
| 2026-04-26 14:16 | 44.98286 | -1.20693 | 667 ft | 149 kts | 5° |
| 2026-04-26 14:17 | 44.99312 | -1.20541 | 669 ft | 149 kts | 2° |
| 2026-04-26 14:17 | 45.00342 | -1.20425 | 667 ft | 148 kts | 3° |
| 2026-04-26 14:17 | 45.01362 | -1.20294 | 668 ft | 148 kts | 2° |
| 2026-04-26 14:17 | 45.02392 | -1.20157 | 668 ft | 149 kts | 3° |
| 2026-04-26 14:18 | 45.03429 | -1.20022 | 668 ft | 151 kts | 2° |
| 2026-04-26 14:18 | 45.04479 | -1.19879 | 668 ft | 152 kts | 2° |
| 2026-04-26 14:18 | 45.05530 | -1.19748 | 667 ft | 150 kts | 3° |
| 2026-04-26 14:18 | 45.06567 | -1.19607 | 667 ft | 149 kts | 2° |
| 2026-04-26 14:19 | 45.07599 | -1.19472 | 670 ft | 149 kts | 3° |
| 2026-04-26 14:19 | 45.08634 | -1.19330 | 670 ft | 150 kts | 4° |
| 2026-04-26 14:19 | 45.09675 | -1.19191 | 670 ft | 150 kts | 2° |
| 2026-04-26 14:19 | 45.10706 | -1.19062 | 671 ft | 149 kts | 3° |
| 2026-04-26 14:20 | 45.11736 | -1.18894 | 669 ft | 152 kts | 4° |
| 2026-04-26 14:20 | 45.12795 | -1.18716 | 670 ft | 152 kts | 5° |
| 2026-04-26 14:20 | 45.13833 | -1.18506 | 669 ft | 153 kts | 5° |
| 2026-04-26 14:20 | 45.14892 | -1.18311 | 669 ft | 155 kts | 5° |
| 2026-04-26 14:21 | 45.15970 | -1.18154 | 669 ft | 154 kts | 5° |
| 2026-04-26 14:21 | 45.17025 | -1.17954 | 667 ft | 152 kts | 5° |
| 2026-04-26 14:21 | 45.18070 | -1.17731 | 668 ft | 151 kts | 4° |
| 2026-04-26 14:21 | 45.19123 | -1.17607 | 667 ft | 152 kts | 0° |
| 2026-04-26 14:22 | 45.20163 | -1.17507 | 664 ft | 152 kts | 1° |
| 2026-04-26 14:22 | 45.21225 | -1.17414 | 667 ft | 154 kts | 0° |
| 2026-04-26 14:22 | 45.22302 | -1.17309 | 668 ft | 156 kts | 1° |
| 2026-04-26 14:22 | 45.23376 | -1.17208 | 667 ft | 155 kts | 0° |
| 2026-04-26 14:23 | 45.24450 | -1.17140 | 666 ft | 154 kts | 1° |
| 2026-04-26 14:23 | 45.25523 | -1.17072 | 666 ft | 155 kts | 1° |
| 2026-04-26 14:23 | 45.26592 | -1.16987 | 666 ft | 153 kts | 1° |
| 2026-04-26 14:23 | 45.27629 | -1.16810 | 667 ft | 151 kts | 7° |
| 2026-04-26 14:24 | 45.28667 | -1.16567 | 666 ft | 151 kts | 6° |
| 2026-04-26 14:24 | 45.29710 | -1.16347 | 667 ft | 152 kts | 6° |
| 2026-04-26 14:24 | 45.30759 | -1.16128 | 670 ft | 153 kts | 5° |
| 2026-04-26 14:24 | 45.31813 | -1.15916 | 670 ft | 153 kts | 5° |
| 2026-04-26 14:25 | 45.32881 | -1.15711 | 671 ft | 154 kts | 6° |
| 2026-04-26 14:25 | 45.33945 | -1.15494 | 670 ft | 154 kts | 6° |
| 2026-04-26 14:25 | 45.34985 | -1.15284 | 669 ft | 152 kts | 6° |
| 2026-04-26 14:25 | 45.36038 | -1.15076 | 669 ft | 152 kts | 6° |
| 2026-04-26 14:26 | 45.37088 | -1.14875 | 666 ft | 152 kts | 6° |
| 2026-04-26 14:26 | 45.38134 | -1.14670 | 665 ft | 152 kts | 5° |
| 2026-04-26 14:26 | 45.39182 | -1.14470 | 667 ft | 152 kts | 6° |
| 2026-04-26 14:26 | 45.40239 | -1.14256 | 667 ft | 154 kts | 6° |
| 2026-04-26 14:27 | 45.41302 | -1.14046 | 669 ft | 154 kts | 6° |
| 2026-04-26 14:27 | 45.42365 | -1.13836 | 668 ft | 154 kts | 6° |
| 2026-04-26 14:27 | 45.43429 | -1.13621 | 667 ft | 154 kts | 6° |
| 2026-04-26 14:27 | 45.44477 | -1.13423 | 666 ft | 151 kts | 6° |
| 2026-04-26 14:28 | 45.45516 | -1.13218 | 668 ft | 151 kts | 4° |
| 2026-04-26 14:28 | 45.46543 | -1.13044 | 664 ft | 151 kts | 6° |
| 2026-04-26 14:28 | 45.47581 | -1.12840 | 666 ft | 150 kts | 6° |
| 2026-04-26 14:28 | 45.48612 | -1.12574 | 667 ft | 151 kts | 7° |
| 2026-04-26 14:29 | 45.49657 | -1.12367 | 667 ft | 153 kts | 5° |
| 2026-04-26 14:29 | 45.50708 | -1.12147 | 667 ft | 152 kts | 5° |
| 2026-04-26 14:29 | 45.51762 | -1.11919 | 667 ft | 153 kts | 6° |
| 2026-04-26 14:29 | 45.52824 | -1.11710 | 667 ft | 154 kts | 6° |
| 2026-04-26 14:30 | 45.53878 | -1.11502 | 668 ft | 152 kts | 4° |
| 2026-04-26 14:30 | 45.54916 | -1.11240 | 672 ft | 151 kts | 15° |
| 2026-04-26 14:30 | 45.55926 | -1.10757 | 668 ft | 154 kts | 16° |
| 2026-04-26 14:30 | 45.56944 | -1.10272 | 669 ft | 153 kts | 15° |
| 2026-04-26 14:31 | 45.57962 | -1.09790 | 669 ft | 154 kts | 17° |
| 2026-04-26 14:31 | 45.58967 | -1.09298 | 668 ft | 156 kts | 16° |
| 2026-04-26 14:31 | 45.59999 | -1.08829 | 663 ft | 155 kts | 15° |
| 2026-04-26 14:31 | 45.61014 | -1.08347 | 661 ft | 152 kts | 16° |
| 2026-04-26 14:32 | 45.62018 | -1.07886 | 664 ft | 152 kts | 15° |
| 2026-04-26 14:32 | 45.63021 | -1.07372 | 664 ft | 152 kts | 17° |
| 2026-04-26 14:32 | 45.64023 | -1.06909 | 664 ft | 152 kts | 16° |
| 2026-04-26 14:32 | 45.65034 | -1.06409 | 665 ft | 154 kts | 15° |
| 2026-04-26 14:33 | 45.66056 | -1.05905 | 666 ft | 156 kts | 15° |
| 2026-04-26 14:33 | 45.67086 | -1.05411 | 666 ft | 157 kts | 15° |
| 2026-04-26 14:33 | 45.68099 | -1.04825 | 665 ft | 156 kts | 20° |
| 2026-04-26 14:33 | 45.69091 | -1.04234 | 663 ft | 152 kts | 21° |
| 2026-04-26 14:34 | 45.70054 | -1.03644 | 664 ft | 153 kts | 20° |
| 2026-04-26 14:34 | 45.71035 | -1.03060 | 664 ft | 153 kts | 21° |
| 2026-04-26 14:34 | 45.72007 | -1.02448 | 664 ft | 152 kts | 21° |
| 2026-04-26 14:34 | 45.72985 | -1.01839 | 664 ft | 155 kts | 21° |
| 2026-04-26 14:35 | 45.73977 | -1.01221 | 664 ft | 155 kts | 21° |
| 2026-04-26 14:35 | 45.74966 | -1.00601 | 665 ft | 155 kts | 20° |
| 2026-04-26 14:35 | 45.75964 | -0.99976 | 665 ft | 156 kts | 21° |
| 2026-04-26 14:35 | 45.76957 | -0.99368 | 664 ft | 154 kts | 20° |
| 2026-04-26 14:36 | 45.77925 | -0.98737 | 662 ft | 153 kts | 22° |
| 2026-04-26 14:36 | 45.78904 | -0.98140 | 662 ft | 155 kts | 19° |
| 2026-04-26 14:36 | 45.79897 | -0.97529 | 662 ft | 155 kts | 21° |
| 2026-04-26 14:36 | 45.80891 | -0.96909 | 662 ft | 156 kts | 21° |
| 2026-04-26 14:37 | 45.81884 | -0.96288 | 662 ft | 156 kts | 21° |
| 2026-04-26 14:37 | 45.82871 | -0.95677 | 661 ft | 153 kts | 21° |
| 2026-04-26 14:37 | 45.83845 | -0.95061 | 662 ft | 153 kts | 22° |
| 2026-04-26 14:37 | 45.84808 | -0.94452 | 663 ft | 153 kts | 21° |
| 2026-04-26 14:38 | 45.85785 | -0.93832 | 658 ft | 153 kts | 20° |
| 2026-04-26 14:38 | 45.86769 | -0.93186 | 658 ft | 156 kts | 22° |
| 2026-04-26 14:38 | 45.87779 | -0.92598 | 658 ft | 157 kts | 22° |
| 2026-04-26 14:38 | 45.88450 | -0.92182 | 657 ft | 157 kts | 19° |
| 2026-04-26 14:39 | 45.89781 | -0.91354 | 657 ft | 155 kts | 21° |
| 2026-04-26 14:39 | 45.90758 | -0.90758 | 656 ft | 155 kts | 21° |
| 2026-04-26 14:39 | 45.91747 | -0.90170 | 657 ft | 154 kts | 21° |
| 2026-04-26 14:39 | 45.92737 | -0.89577 | 656 ft | 153 kts | 20° |
| 2026-04-26 14:40 | 45.93715 | -0.88944 | 655 ft | 154 kts | 23° |
| 2026-04-26 14:40 | 45.94681 | -0.88241 | 653 ft | 156 kts | 24° |
| 2026-04-26 14:40 | 45.95682 | -0.87616 | 654 ft | 156 kts | 18° |
| 2026-04-26 14:40 | 45.96685 | -0.87032 | 653 ft | 155 kts | 21° |
| 2026-04-26 14:41 | 45.97677 | -0.86413 | 652 ft | 157 kts | 21° |
| 2026-04-26 14:41 | 45.98664 | -0.85757 | 653 ft | 155 kts | 22° |
| 2026-04-26 14:41 | 45.99653 | -0.85129 | 655 ft | 155 kts | 24° |
| 2026-04-26 14:41 | 46.00639 | -0.84504 | 653 ft | 155 kts | 19° |
| 2026-04-26 14:42 | 46.01627 | -0.83864 | 653 ft | 156 kts | 20° |
| 2026-04-26 14:42 | 46.02608 | -0.83201 | 651 ft | 155 kts | 22° |
| 2026-04-26 14:42 | 46.03581 | -0.82548 | 654 ft | 159 kts | 17° |
| 2026-04-26 14:42 | 46.04651 | -0.82500 | 657 ft | 154 kts | 346° |
| 2026-04-26 14:43 | 46.05669 | -0.82860 | 652 ft | 150 kts | 342° |
| 2026-04-26 14:43 | 46.06685 | -0.83217 | 652 ft | 151 kts | 343° |
| 2026-04-26 14:43 | 46.07703 | -0.83551 | 653 ft | 150 kts | 343° |
| 2026-04-26 14:43 | 46.08714 | -0.83877 | 654 ft | 149 kts | 347° |
| 2026-04-26 14:44 | 46.09731 | -0.84125 | 654 ft | 149 kts | 343° |
| 2026-04-26 14:44 | 46.10734 | -0.84539 | 652 ft | 151 kts | 340° |
| 2026-04-26 14:44 | 46.11735 | -0.84992 | 653 ft | 150 kts | 338° |
| 2026-04-26 14:44 | 46.12725 | -0.85445 | 654 ft | 149 kts | 342° |
| 2026-04-26 14:45 | 46.13733 | -0.85756 | 661 ft | 146 kts | 344° |
| 2026-04-26 14:45 | 46.14394 | -0.85977 | 664 ft | 149 kts | 344° |
| 2026-04-26 14:45 | 46.15739 | -0.86461 | 667 ft | 148 kts | 345° |
| 2026-04-26 14:45 | 46.16749 | -0.86813 | 668 ft | 150 kts | 345° |
| 2026-04-26 14:46 | 46.17778 | -0.87163 | 664 ft | 152 kts | 344° |
| 2026-04-26 14:46 | 46.18809 | -0.87523 | 662 ft | 152 kts | 344° |
| 2026-04-26 14:46 | 46.19837 | -0.87879 | 662 ft | 151 kts | 344° |
| 2026-04-26 14:46 | 46.20855 | -0.88245 | 662 ft | 150 kts | 343° |
| 2026-04-26 14:47 | 46.21879 | -0.88599 | 663 ft | 152 kts | 346° |
| 2026-04-26 14:47 | 46.22903 | -0.88971 | 662 ft | 154 kts | 343° |
| 2026-04-26 14:47 | 46.23936 | -0.89353 | 664 ft | 154 kts | 346° |
| 2026-04-26 14:47 | 46.24988 | -0.89678 | 664 ft | 154 kts | 343° |
| 2026-04-26 14:48 | 46.26022 | -0.90093 | 662 ft | 154 kts | 343° |
| 2026-04-26 14:48 | 46.27058 | -0.90421 | 662 ft | 153 kts | 345° |
| 2026-04-26 14:48 | 46.28101 | -0.90777 | 661 ft | 154 kts | 345° |
| 2026-04-26 14:48 | 46.29142 | -0.91111 | 661 ft | 153 kts | 343° |
| 2026-04-26 14:49 | 46.30172 | -0.91528 | 661 ft | 152 kts | 341° |
| 2026-04-26 14:49 | 46.31191 | -0.91920 | 661 ft | 151 kts | 342° |
| 2026-04-26 14:49 | 46.32210 | -0.92321 | 661 ft | 153 kts | 342° |
| 2026-04-26 14:49 | 46.33229 | -0.92673 | 664 ft | 153 kts | 343° |
| 2026-04-26 14:50 | 46.34266 | -0.93048 | 666 ft | 154 kts | 343° |
| 2026-04-26 14:50 | 46.35310 | -0.93423 | 665 ft | 154 kts | 345° |
| 2026-04-26 14:50 | 46.36349 | -0.93778 | 677 ft | 154 kts | 346° |
| 2026-04-26 14:50 | 46.37400 | -0.94120 | 677 ft | 154 kts | 345° |
| 2026-04-26 14:51 | 46.38447 | -0.94497 | 677 ft | 155 kts | 345° |
| 2026-04-26 14:51 | 46.39489 | -0.94881 | 676 ft | 155 kts | 345° |
| 2026-04-26 14:51 | 46.40535 | -0.95252 | 675 ft | 155 kts | 345° |
| 2026-04-26 14:51 | 46.41566 | -0.95627 | 667 ft | 154 kts | 345° |
| 2026-04-26 14:52 | 46.42610 | -0.96001 | 666 ft | 154 kts | 346° |
| 2026-04-26 14:52 | 46.43652 | -0.96372 | 666 ft | 154 kts | 345° |
| 2026-04-26 14:52 | 46.44699 | -0.96744 | 671 ft | 154 kts | 345° |
| 2026-04-26 14:52 | 46.45744 | -0.97110 | 672 ft | 155 kts | 345° |
| 2026-04-26 14:53 | 46.46791 | -0.97484 | 668 ft | 154 kts | 345° |
| 2026-04-26 14:53 | 46.47833 | -0.97851 | 667 ft | 154 kts | 345° |
| 2026-04-26 14:53 | 46.48870 | -0.98232 | 667 ft | 153 kts | 345° |
| 2026-04-26 14:53 | 46.49891 | -0.98611 | 667 ft | 153 kts | 345° |
| 2026-04-26 14:54 | 46.50930 | -0.98981 | 668 ft | 153 kts | 346° |
| 2026-04-26 14:54 | 46.51963 | -0.99356 | 667 ft | 154 kts | 345° |
| 2026-04-26 14:54 | 46.53003 | -0.99724 | 667 ft | 154 kts | 346° |
| 2026-04-26 14:54 | 46.54041 | -1.00095 | 667 ft | 154 kts | 345° |
| 2026-04-26 14:55 | 46.55082 | -1.00471 | 668 ft | 155 kts | 346° |
| 2026-04-26 14:55 | 46.56126 | -1.00844 | 667 ft | 154 kts | 346° |
| 2026-04-26 14:55 | 46.57173 | -1.01226 | 665 ft | 154 kts | 345° |
| 2026-04-26 14:55 | 46.58210 | -1.01607 | 666 ft | 154 kts | 346° |
| 2026-04-26 14:56 | 46.59253 | -1.01986 | 667 ft | 154 kts | 346° |
| 2026-04-26 14:56 | 46.60292 | -1.02361 | 667 ft | 154 kts | 346° |
| 2026-04-26 14:56 | 46.61331 | -1.02745 | 667 ft | 154 kts | 346° |
| 2026-04-26 14:56 | 46.62372 | -1.03116 | 667 ft | 154 kts | 346° |
| 2026-04-26 14:57 | 46.63414 | -1.03491 | 667 ft | 154 kts | 346° |
| 2026-04-26 14:57 | 46.64455 | -1.03862 | 667 ft | 154 kts | 346° |
| 2026-04-26 14:57 | 46.65496 | -1.04231 | 667 ft | 154 kts | 346° |
| 2026-04-26 14:57 | 46.66527 | -1.04605 | 667 ft | 154 kts | 346° |
| 2026-04-26 14:58 | 46.67570 | -1.04977 | 667 ft | 154 kts | 346° |
| 2026-04-26 14:58 | 46.68613 | -1.05352 | 667 ft | 154 kts | 346° |
| 2026-04-26 14:58 | 46.69655 | -1.05726 | 667 ft | 154 kts | 346° |
| 2026-04-26 14:58 | 46.70698 | -1.06097 | 667 ft | 154 kts | 346° |
| 2026-04-26 14:59 | 46.71740 | -1.06475 | 667 ft | 154 kts | 346° |
| 2026-04-26 14:59 | 46.72780 | -1.06856 | 667 ft | 154 kts | 346° |
| 2026-04-26 14:59 | 46.73805 | -1.07237 | 667 ft | 154 kts | 345° |
| 2026-04-26 14:59 | 46.74155 | -1.07367 | 667 ft | 154 kts | 346° |
| 2026-04-26 15:00 | 46.75880 | -1.07985 | 667 ft | 154 kts | 346° |
| 2026-04-26 15:00 | 46.76919 | -1.08362 | 668 ft | 153 kts | 346° |
| 2026-04-26 15:00 | 46.77619 | -1.08619 | 667 ft | 154 kts | 346° |
| 2026-04-26 15:00 | 46.78995 | -1.09116 | 667 ft | 154 kts | 346° |
| 2026-04-26 15:01 | 46.79692 | -1.09368 | 668 ft | 154 kts | 346° |
| 2026-04-26 15:01 | 46.80732 | -1.09750 | 665 ft | 154 kts | 346° |
| 2026-04-26 15:01 | 46.81771 | -1.10134 | 664 ft | 154 kts | 345° |
| 2026-04-26 15:01 | 46.82811 | -1.10511 | 665 ft | 154 kts | 346° |
| 2026-04-26 15:02 | 46.83848 | -1.10883 | 664 ft | 153 kts | 346° |
| 2026-04-26 15:02 | 46.84881 | -1.11268 | 664 ft | 153 kts | 346° |
| 2026-04-26 15:02 | 46.85915 | -1.11633 | 664 ft | 153 kts | 347° |
| 2026-04-26 15:02 | 46.86952 | -1.12002 | 664 ft | 153 kts | 346° |
| 2026-04-26 15:03 | 46.87976 | -1.12370 | 665 ft | 153 kts | 346° |
| 2026-04-26 15:03 | 46.89006 | -1.12749 | 664 ft | 152 kts | 345° |
| 2026-04-26 15:03 | 46.90034 | -1.13134 | 664 ft | 152 kts | 345° |
| 2026-04-26 15:03 | 46.91061 | -1.13522 | 664 ft | 153 kts | 346° |
| 2026-04-26 15:04 | 46.92092 | -1.13897 | 664 ft | 153 kts | 346° |
| 2026-04-26 15:04 | 46.93127 | -1.14286 | 664 ft | 153 kts | 346° |
| 2026-04-26 15:04 | 46.94158 | -1.14652 | 664 ft | 151 kts | 346° |
| 2026-04-26 15:04 | 46.95180 | -1.15031 | 664 ft | 152 kts | 346° |
| 2026-04-26 15:05 | 46.96211 | -1.15397 | 664 ft | 153 kts | 346° |
| 2026-04-26 15:05 | 46.96891 | -1.15647 | 664 ft | 153 kts | 347° |
| 2026-04-26 15:05 | 46.98279 | -1.16144 | 663 ft | 153 kts | 346° |
| 2026-04-26 15:05 | 46.99302 | -1.16506 | 664 ft | 153 kts | 346° |
| 2026-04-26 15:06 | 47.00347 | -1.16890 | 663 ft | 153 kts | 346° |
| 2026-04-26 15:06 | 47.01379 | -1.17259 | 664 ft | 153 kts | 346° |
| 2026-04-26 15:06 | 47.02393 | -1.17644 | 663 ft | 152 kts | 345° |
| 2026-04-26 15:06 | 47.03424 | -1.18026 | 663 ft | 153 kts | 347° |
| 2026-04-26 15:07 | 47.05483 | -1.18799 | 662 ft | 153 kts | 346° |
| 2026-04-26 15:07 | 47.06520 | -1.19170 | 661 ft | 153 kts | 346° |
| 2026-04-26 15:07 | 47.07562 | -1.19548 | 661 ft | 153 kts | 346° |
| 2026-04-26 15:08 | 47.08596 | -1.19927 | 661 ft | 153 kts | 346° |
| 2026-04-26 15:08 | 47.09628 | -1.20298 | 661 ft | 153 kts | 346° |
| 2026-04-26 15:08 | 47.10662 | -1.20684 | 660 ft | 153 kts | 346° |
| 2026-04-26 15:08 | 47.11695 | -1.21075 | 654 ft | 154 kts | 345° |
| 2026-04-26 15:09 | 47.12719 | -1.21456 | 654 ft | 153 kts | 346° |
| 2026-04-26 15:09 | 47.13753 | -1.21827 | 652 ft | 153 kts | 347° |
| 2026-04-26 15:09 | 47.14789 | -1.22209 | 651 ft | 153 kts | 346° |
| 2026-04-26 15:09 | 47.15819 | -1.22602 | 651 ft | 153 kts | 346° |
| 2026-04-26 15:10 | 47.16854 | -1.22985 | 650 ft | 153 kts | 346° |
| 2026-04-26 15:10 | 47.17540 | -1.23233 | 651 ft | 153 kts | 346° |
| 2026-04-26 15:10 | 47.18929 | -1.23739 | 650 ft | 153 kts | 346° |
| 2026-04-26 15:10 | 47.19966 | -1.24067 | 670 ft | 151 kts | 352° |
| 2026-04-26 15:11 | 47.21006 | -1.24216 | 682 ft | 151 kts | 354° |
| 2026-04-26 15:11 | 47.22057 | -1.24392 | 639 ft | 155 kts | 352° |
| 2026-04-26 15:11 | 47.23112 | -1.24746 | 634 ft | 154 kts | 345° |
| 2026-04-26 15:11 | 47.24145 | -1.25150 | 634 ft | 153 kts | 345° |
| 2026-04-26 15:12 | 47.25169 | -1.25552 | 639 ft | 151 kts | 347° |
| 2026-04-26 15:12 | 47.26194 | -1.25906 | 641 ft | 151 kts | 346° |
| 2026-04-26 15:12 | 47.27206 | -1.26311 | 642 ft | 151 kts | 345° |
| 2026-04-26 15:12 | 47.28225 | -1.26698 | 643 ft | 151 kts | 346° |
| 2026-04-26 15:13 | 47.29247 | -1.27076 | 642 ft | 151 kts | 346° |
| 2026-04-26 15:13 | 47.30270 | -1.27439 | 641 ft | 152 kts | 347° |
| 2026-04-26 15:13 | 47.31298 | -1.27805 | 642 ft | 151 kts | 346° |
| 2026-04-26 15:13 | 47.32305 | -1.28189 | 642 ft | 153 kts | 346° |
| 2026-04-26 15:14 | 47.33331 | -1.28571 | 643 ft | 152 kts | 346° |
| 2026-04-26 15:14 | 47.34353 | -1.28964 | 642 ft | 151 kts | 346° |
| 2026-04-26 15:14 | 47.35377 | -1.29354 | 642 ft | 151 kts | 346° |
| 2026-04-26 15:14 | 47.36404 | -1.29742 | 642 ft | 152 kts | 346° |
| 2026-04-26 15:15 | 47.37426 | -1.30135 | 642 ft | 152 kts | 347° |
| 2026-04-26 15:15 | 47.38453 | -1.30512 | 645 ft | 152 kts | 346° |
| 2026-04-26 15:15 | 47.39471 | -1.30878 | 647 ft | 152 kts | 347° |
| 2026-04-26 15:15 | 47.40496 | -1.31243 | 648 ft | 152 kts | 346° |
| 2026-04-26 15:16 | 47.41524 | -1.31639 | 648 ft | 153 kts | 346° |
| 2026-04-26 15:16 | 47.42562 | -1.32031 | 646 ft | 154 kts | 346° |
| 2026-04-26 15:16 | 47.43592 | -1.32431 | 647 ft | 153 kts | 346° |
| 2026-04-26 15:16 | 47.44645 | -1.32721 | 647 ft | 153 kts | 351° |
| 2026-04-26 15:17 | 47.45677 | -1.32993 | 647 ft | 153 kts | 350° |
| 2026-04-26 15:17 | 47.46383 | -1.33169 | 647 ft | 152 kts | 351° |
| 2026-04-26 15:17 | 47.47773 | -1.33522 | 647 ft | 153 kts | 351° |
| 2026-04-26 15:17 | 47.48826 | -1.33776 | 647 ft | 153 kts | 351° |
| 2026-04-26 15:18 | 47.49879 | -1.34039 | 646 ft | 153 kts | 351° |
| 2026-04-26 15:18 | 47.50923 | -1.34300 | 647 ft | 152 kts | 351° |
| 2026-04-26 15:18 | 47.51967 | -1.34575 | 648 ft | 152 kts | 350° |
| 2026-04-26 15:18 | 47.53007 | -1.34841 | 648 ft | 152 kts | 352° |
| 2026-04-26 15:19 | 47.54051 | -1.35097 | 649 ft | 152 kts | 351° |
| 2026-04-26 15:19 | 47.55098 | -1.35358 | 650 ft | 152 kts | 351° |
| 2026-04-26 15:19 | 47.56145 | -1.35616 | 651 ft | 152 kts | 349° |
| 2026-04-26 15:19 | 47.57189 | -1.35890 | 651 ft | 153 kts | 351° |
| 2026-04-26 15:20 | 47.58239 | -1.36153 | 651 ft | 153 kts | 351° |
| 2026-04-26 15:20 | 47.59290 | -1.36415 | 650 ft | 154 kts | 351° |
| 2026-04-26 15:20 | 47.60336 | -1.36672 | 650 ft | 154 kts | 351° |
| 2026-04-26 15:20 | 47.61407 | -1.36935 | 650 ft | 154 kts | 351° |
| 2026-04-26 15:21 | 47.62450 | -1.37198 | 651 ft | 154 kts | 351° |
| 2026-04-26 15:21 | 47.63506 | -1.37466 | 653 ft | 154 kts | 351° |
| 2026-04-26 15:21 | 47.64560 | -1.37729 | 653 ft | 153 kts | 351° |
| 2026-04-26 15:21 | 47.65617 | -1.37996 | 653 ft | 154 kts | 351° |
| 2026-04-26 15:22 | 47.66667 | -1.38273 | 653 ft | 153 kts | 351° |
| 2026-04-26 15:22 | 47.67721 | -1.38521 | 652 ft | 153 kts | 351° |
| 2026-04-26 15:22 | 47.68772 | -1.38775 | 653 ft | 153 kts | 351° |
| 2026-04-26 15:22 | 47.69825 | -1.39029 | 653 ft | 153 kts | 351° |
| 2026-04-26 15:23 | 47.70874 | -1.39290 | 653 ft | 153 kts | 350° |
| 2026-04-26 15:23 | 47.71928 | -1.39542 | 653 ft | 153 kts | 351° |
| 2026-04-26 15:23 | 47.72980 | -1.39803 | 653 ft | 154 kts | 351° |
| 2026-04-26 15:23 | 47.74034 | -1.40062 | 660 ft | 153 kts | 351° |
| 2026-04-26 15:24 | 47.75070 | -1.40317 | 662 ft | 153 kts | 351° |
| 2026-04-26 15:24 | 47.76125 | -1.40489 | 663 ft | 152 kts | 356° |
| 2026-04-26 15:24 | 47.77182 | -1.40639 | 662 ft | 153 kts | 354° |
| 2026-04-26 15:24 | 47.78244 | -1.40788 | 662 ft | 153 kts | 355° |
| 2026-04-26 15:25 | 47.79309 | -1.40932 | 663 ft | 153 kts | 355° |
| 2026-04-26 15:25 | 47.80012 | -1.41030 | 664 ft | 153 kts | 355° |
| 2026-04-26 15:25 | 47.81437 | -1.41225 | 667 ft | 153 kts | 357° |
| 2026-04-26 15:25 | 47.82503 | -1.41283 | 666 ft | 153 kts | 358° |
| 2026-04-26 15:26 | 47.83558 | -1.41351 | 666 ft | 153 kts | 357° |
| 2026-04-26 15:26 | 47.84626 | -1.41425 | 666 ft | 154 kts | 357° |
| 2026-04-26 15:26 | 47.85692 | -1.41506 | 667 ft | 153 kts | 358° |
| 2026-04-26 15:26 | 47.86757 | -1.41556 | 667 ft | 153 kts | 358° |
| 2026-04-26 15:27 | 47.87820 | -1.41626 | 667 ft | 153 kts | 358° |
| 2026-04-26 15:27 | 47.88881 | -1.41699 | 668 ft | 153 kts | 358° |
| 2026-04-26 15:27 | 47.89944 | -1.41757 | 669 ft | 153 kts | 358° |
| 2026-04-26 15:27 | 47.91010 | -1.41827 | 669 ft | 153 kts | 358° |
| 2026-04-26 15:28 | 47.92076 | -1.41892 | 669 ft | 153 kts | 358° |
| 2026-04-26 15:28 | 47.93140 | -1.41958 | 669 ft | 153 kts | 358° |
| 2026-04-26 15:28 | 47.94207 | -1.42020 | 670 ft | 153 kts | 358° |
| 2026-04-26 15:28 | 47.95276 | -1.42079 | 669 ft | 153 kts | 357° |
| 2026-04-26 15:29 | 47.96339 | -1.42156 | 670 ft | 154 kts | 358° |
| 2026-04-26 15:29 | 47.97411 | -1.42218 | 669 ft | 153 kts | 358° |
| 2026-04-26 15:29 | 47.99530 | -1.42340 | 669 ft | 153 kts | 357° |
| 2026-04-26 15:30 | 48.01657 | -1.42471 | 669 ft | 153 kts | 358° |
| 2026-04-26 15:30 | 48.02723 | -1.42531 | 670 ft | 153 kts | 358° |
| 2026-04-26 15:30 | 48.03790 | -1.42600 | 670 ft | 153 kts | 357° |
| 2026-04-26 15:31 | 48.04853 | -1.42657 | 670 ft | 153 kts | 358° |
| 2026-04-26 15:31 | 48.06984 | -1.42772 | 669 ft | 153 kts | 357° |
| 2026-04-26 15:31 | 48.08052 | -1.42834 | 669 ft | 153 kts | 358° |
| 2026-04-26 15:32 | 48.09824 | -1.42944 | 669 ft | 153 kts | 358° |
| 2026-04-26 15:32 | 48.11235 | -1.43036 | 670 ft | 153 kts | 358° |
| 2026-04-26 15:32 | 48.12302 | -1.43099 | 670 ft | 153 kts | 358° |
| 2026-04-26 15:33 | 48.13372 | -1.43161 | 670 ft | 154 kts | 358° |
| 2026-04-26 15:33 | 48.14441 | -1.43216 | 672 ft | 154 kts | 358° |
| 2026-04-26 15:33 | 48.15510 | -1.43270 | 672 ft | 153 kts | 358° |
| 2026-04-26 15:33 | 48.16575 | -1.43328 | 672 ft | 153 kts | 357° |
| 2026-04-26 15:34 | 48.17643 | -1.43410 | 672 ft | 153 kts | 357° |
| 2026-04-26 15:34 | 48.18709 | -1.43476 | 672 ft | 154 kts | 358° |
| 2026-04-26 15:34 | 48.19764 | -1.43546 | 672 ft | 153 kts | 357° |
| 2026-04-26 15:34 | 48.20828 | -1.43615 | 672 ft | 153 kts | 358° |
| 2026-04-26 15:35 | 48.21893 | -1.43675 | 672 ft | 153 kts | 357° |
| 2026-04-26 15:35 | 48.22960 | -1.43746 | 674 ft | 153 kts | 358° |
| 2026-04-26 15:35 | 48.24026 | -1.43814 | 674 ft | 154 kts | 358° |
| 2026-04-26 15:35 | 48.25100 | -1.43880 | 674 ft | 154 kts | 358° |
| 2026-04-26 15:36 | 48.26172 | -1.43949 | 674 ft | 154 kts | 358° |
| 2026-04-26 15:36 | 48.27242 | -1.44010 | 675 ft | 154 kts | 358° |